Christmas Island, Christmas Island

10:09 PM CXT on December 07, 2016 (GMT +0700)
Christmas Island | | Change Station

Elev 860 ft 10.45 °S, 105.69 °E | Updated 39 minutes ago

Scattered Clouds
Scattered Clouds
77 °F
Feels Like 77 °F
N
7
Wind Variable Wind from SSE

Today
High -- | Low -- °F
--% Chance of Precip.
Yesterday
High -- | Low -- °F
Precip. -- in
Pressure 29.89 in
Visibility 6.2 miles
Clouds Scattered Clouds 1800 ft
Dew Point 72 °F
Humidity 83%
Rainfall 0.00 in
Snow Depth Not available.
5:27 AM 6:10 PM
First Quarter, 53% visible
METAR YPXM 071430Z AUTO 15006KT 9999 // SCT018 25/22 Q1012
Pressure 29.89 in
Visibility 6.2 miles
Clouds Scattered Clouds 1800 ft
Dew Point 72 °F
Humidity 83%
Rainfall 0.00 in
Snow Depth Not available.
5:27 AM 6:10 PM
First Quarter, 53% visible
METAR YPXM 071430Z AUTO 15006KT 9999 // SCT018 25/22 Q1012

10-Day Weather Forecast

No radar image for this location.
×

Almanac

Astronomy

Dec. 07, 2016 Rise Set
Actual Time
Civil Twilight
Nautical Twilight
Astronomical Twilight
Moon
Length of Visible Light
Length of Day
Tomorrow will be .
, % of the Moon is Illuminated

Today's Extremes

Country Highs Country Lows

Community

WunderPhotos

Upload Photos

1,956,118 photos uploaded!

WunderBlog® & News

Nearby

Air Quality

  Air Quality AQ Index Pollutant
Not available.

Snow Depth

Station Depth Elevation

Earthquake Activity

City Distance Mag. Time & Date
Minimum magnitude displayed is 2.5.

Coastal Water Temperatures

Place Temperature

Stations

Nearby Weather Stations

Station Location Temp. Windchill Dew Point Humidity Wind Precip. Elev Updated Type